Time;durP1;ratioP1;P1;durP2;ratioP2;P2;SDS_P1;SDS_P2;PMS_P1;PMS_P2;Temp;Humidity;BMP_temperature;BMP_pressure;BME280_temperature;BME280_humidity;BME280_pressure;Samples;Min_cycle;Max_cycle;Signal;HPM_P1;HPM_P2
2024/02/05 00:00:10;;;;;;;5.40;4.37;;;7.20;99.90;;;;;;5039887;28;20234;-86
2024/02/05 00:02:37;;;;;;;5.63;5.13;;;7.20;99.90;;;;;;5039391;28;20454;-86
2024/02/05 00:05:05;;;;;;;6.63;6.00;;;7.20;99.90;;;;;;5038445;28;20219;-86
2024/02/05 00:07:33;;;;;;;7.28;4.70;;;7.30;99.90;;;;;;5043018;28;20204;-85
2024/02/05 00:10:00;;;;;;;6.70;5.10;;;7.40;99.90;;;;;;5038657;28;20229;-86
2024/02/05 00:12:27;;;;;;;7.90;4.82;;;7.40;99.90;;;;;;5039038;28;20306;-85
2024/02/05 00:14:54;;;;;;;6.30;5.70;;;7.40;99.90;;;;;;5038529;28;20653;-86
2024/02/05 00:17:21;;;;;;;5.40;4.90;;;7.50;99.90;;;;;;5054815;28;20448;-86
2024/02/05 00:19:51;;;;;;;4.43;4.03;;;7.60;99.90;;;;;;5040203;28;20473;-85
2024/02/05 00:22:19;;;;;;;5.15;4.75;;;7.60;99.90;;;;;;5039010;28;20889;-86
2024/02/05 00:24:47;;;;;;;5.90;5.03;;;7.70;99.90;;;;;;5039589;28;20204;-86
2024/02/05 00:27:15;;;;;;;5.03;4.57;;;7.80;99.90;;;;;;5040045;28;20809;-86
2024/02/05 00:29:42;;;;;;;4.30;3.90;;;7.90;99.90;;;;;;5038368;28;20553;-86
2024/02/05 00:32:09;;;;;;;5.70;4.22;;;8.00;99.90;;;;;;5041363;28;20448;-87
2024/02/05 00:34:37;;;;;;;4.03;3.73;;;8.10;99.90;;;;;;5040008;28;20335;-88
2024/02/05 00:37:04;;;;;;;3.50;2.63;;;8.20;99.90;;;;;;5051744;28;20510;-89
2024/02/05 00:39:31;;;;;;;3.63;3.33;;;8.20;99.90;;;;;;5041654;28;20596;-89
2024/02/05 00:41:59;;;;;;;3.10;2.90;;;8.30;99.90;;;;;;5040588;28;21028;-88
2024/02/05 00:44:27;;;;;;;2.60;2.40;;;8.40;99.90;;;;;;5038858;28;20442;-88
2024/02/05 00:46:54;;;;;;;2.70;2.50;;;8.50;99.90;;;;;;5039123;28;20542;-89
2024/02/05 00:49:20;;;;;;;2.43;2.23;;;8.60;99.90;;;;;;5040279;28;20502;-89
2024/02/05 00:51:47;;;;;;;2.57;2.37;;;8.70;99.90;;;;;;5047720;28;20410;-88
2024/02/05 00:54:14;;;;;;;2.63;2.43;;;8.70;99.90;;;;;;5054762;28;21048;-88
2024/02/05 00:56:41;;;;;;;2.30;2.20;;;8.80;99.90;;;;;;5058876;28;20434;-87
2024/02/05 00:59:09;;;;;;;1.90;1.80;;;8.80;99.90;;;;;;5060130;28;20460;-88
2024/02/05 01:01:36;;;;;;;1.60;1.50;;;8.90;99.90;;;;;;5059761;28;20423;-88
2024/02/05 01:04:03;;;;;;;1.20;1.10;;;9.00;99.90;;;;;;5060476;28;20451;-89
2024/02/05 01:06:31;;;;;;;1.57;1.47;;;9.00;99.90;;;;;;5060408;28;20456;-88
2024/02/05 01:08:58;;;;;;;1.33;1.27;;;9.10;99.90;;;;;;5060175;28;20443;-88
2024/02/05 01:11:25;;;;;;;1.20;1.10;;;9.10;99.90;;;;;;5060203;28;20431;-88
2024/02/05 01:13:52;;;;;;;1.13;1.03;;;9.20;99.90;;;;;;5058646;28;20413;-89
2024/02/05 01:16:20;;;;;;;1.20;1.10;;;9.10;99.90;;;;;;5059430;28;20468;-88
2024/02/05 01:18:47;;;;;;;1.13;0.90;;;9.20;99.90;;;;;;5059079;28;20442;-88
2024/02/05 01:21:14;;;;;;;0.97;0.97;;;9.20;99.90;;;;;;5050648;28;20482;-89
2024/02/05 01:23:41;;;;;;;1.20;1.10;;;9.30;99.90;;;;;;5041063;28;20421;-88
2024/02/05 01:26:08;;;;;;;1.83;1.20;;;9.30;99.90;;;;;;5040912;28;20485;-89
2024/02/05 01:28:35;;;;;;;0.90;0.90;;;9.30;99.90;;;;;;5042420;28;20421;-88
2024/02/05 01:31:02;;;;;;;1.40;1.30;;;9.40;99.90;;;;;;5042203;28;20433;-88
2024/02/05 01:33:31;;;;;;;0.80;0.80;;;9.40;99.90;;;;;;5042104;28;20842;-88
2024/02/05 01:35:57;;;;;;;0.80;0.80;;;9.40;99.90;;;;;;5043014;28;20478;-88
2024/02/05 01:38:25;;;;;;;0.97;0.97;;;9.40;99.90;;;;;;5048756;28;20456;-88
2024/02/05 01:40:51;;;;;;;1.10;1.07;;;9.50;99.90;;;;;;5054856;28;20470;-87
2024/02/05 01:43:18;;;;;;;1.30;1.20;;;9.50;99.90;;;;;;5054259;28;20477;-88
2024/02/05 01:45:45;;;;;;;1.13;1.03;;;9.50;99.90;;;;;;5050312;28;20510;-88
2024/02/05 01:48:12;;;;;;;1.30;1.20;;;9.50;99.90;;;;;;5049955;28;20424;-88
2024/02/05 01:50:41;;;;;;;1.23;1.03;;;9.60;99.90;;;;;;5052919;28;20534;-88
2024/02/05 01:53:09;;;;;;;1.40;1.30;;;9.60;99.90;;;;;;5058577;28;20405;-87
2024/02/05 01:55:36;;;;;;;0.90;0.90;;;9.60;99.90;;;;;;5055726;28;20476;-89
2024/02/05 01:58:03;;;;;;;1.13;1.03;;;9.60;99.90;;;;;;5058830;28;20430;-89
2024/02/05 02:00:30;;;;;;;1.73;1.03;;;9.60;99.90;;;;;;5058910;28;20446;-89
2024/02/05 02:02:57;;;;;;;1.60;1.10;;;9.70;99.90;;;;;;5045868;28;20497;-89
2024/02/05 02:05:28;;;;;;;1.30;1.20;;;9.60;99.90;;;;;;5041423;28;20452;-89
2024/02/05 02:07:59;;;;;;;1.00;1.00;;;9.70;99.90;;;;;;5039145;28;20958;-88
2024/02/05 02:10:26;;;;;;;1.27;1.17;;;9.70;99.90;;;;;;5038308;28;20528;-88
2024/02/05 02:12:53;;;;;;;1.70;1.60;;;9.70;99.90;;;;;;5036927;28;20446;-88
2024/02/05 02:15:20;;;;;;;1.33;1.10;;;9.70;99.90;;;;;;5037215;28;20532;-88
2024/02/05 02:17:51;;;;;;;1.30;1.20;;;9.80;99.90;;;;;;5036986;28;20461;-88
2024/02/05 02:20:22;;;;;;;1.20;1.10;;;9.70;99.90;;;;;;5037015;28;20516;-87
2024/02/05 02:22:57;;;;;;;1.40;1.20;;;9.70;99.90;;;;;;5036180;28;20822;-87
2024/02/05 02:25:26;;;;;;;1.13;1.10;;;9.80;99.90;;;;;;5035740;28;20461;-87
2024/02/05 02:27:54;;;;;;;1.00;0.90;;;9.70;99.90;;;;;;5036174;28;20450;-88
2024/02/05 02:30:22;;;;;;;1.20;1.10;;;9.80;99.90;;;;;;5036962;28;20860;-87
2024/02/05 02:32:57;;;;;;;1.20;1.10;;;9.70;99.90;;;;;;5039255;28;20450;-89
2024/02/05 02:35:29;;;;;;;1.40;0.90;;;9.70;99.90;;;;;;5036634;28;20474;-87
2024/02/05 02:38:02;;;;;;;1.20;1.10;;;9.80;99.90;;;;;;5036704;28;20480;-90
2024/02/05 02:40:33;;;;;;;1.57;1.17;;;9.80;99.90;;;;;;5036332;28;20470;-89
2024/02/05 02:43:03;;;;;;;1.00;1.00;;;9.80;99.90;;;;;;5037298;28;20439;-89
2024/02/05 02:45:31;;;;;;;1.33;1.00;;;9.80;99.90;;;;;;5037659;28;20446;-89
2024/02/05 02:47:58;;;;;;;1.20;1.10;;;9.80;99.90;;;;;;5056811;28;20456;-89
2024/02/05 02:50:25;;;;;;;0.90;0.90;;;9.80;99.90;;;;;;5046262;28;20514;-89
2024/02/05 02:52:52;;;;;;;1.37;1.27;;;9.80;99.90;;;;;;5036372;28;20432;-89
2024/02/05 02:55:19;;;;;;;1.20;1.13;;;9.80;99.90;;;;;;5036580;28;20550;-89
2024/02/05 02:57:48;;;;;;;2.70;0.87;;;9.80;99.90;;;;;;5037530;28;20550;-88
2024/02/05 03:00:17;;;;;;;1.30;1.20;;;9.80;99.90;;;;;;5036159;28;20466;-89
2024/02/05 03:02:44;;;;;;;1.00;1.00;;;9.80;99.90;;;;;;5036349;28;20501;-88
2024/02/05 03:05:11;;;;;;;1.00;0.90;;;9.90;99.90;;;;;;5036130;28;20476;-89
2024/02/05 03:07:38;;;;;;;1.00;1.00;;;9.90;99.90;;;;;;5036813;28;20534;-88
2024/02/05 03:10:06;;;;;;;0.90;0.90;;;9.90;99.90;;;;;;5035954;28;20504;-88
2024/02/05 03:12:34;;;;;;;1.20;1.10;;;9.90;99.90;;;;;;5035156;28;20447;-88
2024/02/05 03:15:02;;;;;;;0.97;0.80;;;9.90;99.90;;;;;;5035528;28;20482;-88
2024/02/05 03:17:30;;;;;;;1.07;0.80;;;9.90;99.90;;;;;;5035618;28;20450;-89
2024/02/05 03:19:57;;;;;;;0.80;0.80;;;9.80;99.90;;;;;;5043330;28;20531;-89
2024/02/05 03:22:24;;;;;;;0.80;0.80;;;9.80;99.90;;;;;;5060114;28;20477;-88
2024/02/05 03:24:51;;;;;;;1.80;0.87;;;9.90;99.90;;;;;;5043680;28;20457;-88
2024/02/05 03:27:18;;;;;;;1.67;0.77;;;9.80;99.90;;;;;;5042399;28;20800;-89
2024/02/05 03:29:45;;;;;;;0.90;0.90;;;9.80;99.90;;;;;;5046574;28;20463;-87
2024/02/05 03:32:13;;;;;;;1.23;1.07;;;9.80;99.90;;;;;;5051757;28;20477;-88
2024/02/05 03:34:40;;;;;;;0.80;0.80;;;9.90;99.90;;;;;;5051702;28;20446;-87
2024/02/05 03:37:07;;;;;;;0.87;0.87;;;9.90;99.90;;;;;;5053046;28;20474;-88
2024/02/05 03:39:34;;;;;;;0.97;0.90;;;9.80;99.90;;;;;;5051085;28;21026;-88
2024/02/05 03:42:01;;;;;;;1.97;1.07;;;9.80;99.90;;;;;;5041996;28;20501;-88
2024/02/05 03:44:28;;;;;;;1.83;0.90;;;9.90;99.90;;;;;;5047475;28;20541;-89
2024/02/05 03:46:54;;;;;;;1.30;1.20;;;9.90;99.90;;;;;;5046221;28;20518;-89
2024/02/05 03:49:23;;;;;;;1.07;0.93;;;9.80;99.90;;;;;;5053366;28;20470;-88
2024/02/05 03:51:49;;;;;;;1.20;1.10;;;9.80;99.90;;;;;;5054084;28;20472;-88
2024/02/05 03:54:16;;;;;;;1.23;1.13;;;9.80;99.90;;;;;;5044636;28;20489;-89
2024/02/05 03:56:44;;;;;;;0.90;0.90;;;9.80;99.90;;;;;;5045834;28;20520;-89
2024/02/05 03:59:11;;;;;;;2.50;1.40;;;9.80;99.90;;;;;;5045451;28;20486;-89
2024/02/05 04:01:38;;;;;;;2.40;2.20;;;9.80;99.90;;;;;;5055215;28;20434;-89
2024/02/05 04:04:05;;;;;;;0.83;0.83;;;9.80;99.90;;;;;;5059972;28;20442;-89
2024/02/05 04:06:34;;;;;;;0.90;0.80;;;9.80;99.90;;;;;;5059295;28;20462;-88
2024/02/05 04:09:01;;;;;;;1.47;1.10;;;9.80;99.90;;;;;;5060383;28;20447;-89
2024/02/05 04:11:28;;;;;;;0.93;0.87;;;9.80;99.90;;;;;;5046256;28;20509;-88
2024/02/05 04:13:54;;;;;;;0.90;0.73;;;9.80;99.90;;;;;;5040788;28;20537;-89
2024/02/05 04:16:21;;;;;;;0.70;0.70;;;9.80;99.90;;;;;;5041139;28;20449;-89
2024/02/05 04:18:48;;;;;;;0.80;0.80;;;9.80;99.90;;;;;;5040988;28;20545;-89
2024/02/05 04:21:15;;;;;;;0.93;0.83;;;9.80;99.90;;;;;;5040572;28;20557;-89
2024/02/05 04:23:43;;;;;;;0.80;0.80;;;9.80;99.90;;;;;;5040355;28;20810;-87
2024/02/05 04:26:18;;;;;;;1.60;0.70;;;9.80;99.90;;;;;;5048633;28;20429;-89
2024/02/05 04:28:44;;;;;;;0.87;0.87;;;9.80;99.90;;;;;;5045985;28;20450;-89
2024/02/05 04:31:12;;;;;;;1.10;0.90;;;9.80;99.90;;;;;;5043594;28;20520;-89
2024/02/05 04:33:40;;;;;;;0.80;0.70;;;9.90;99.90;;;;;;5058485;28;20428;-89
2024/02/05 04:36:12;;;;;;;1.30;1.30;;;9.80;99.90;;;;;;5059951;28;20530;-89
2024/02/05 04:38:39;;;;;;;3.17;1.80;;;9.80;99.90;;;;;;5054264;28;20440;-90
2024/02/05 04:41:13;;;;;;;1.37;0.80;;;9.80;99.90;;;;;;5044722;28;20485;-90
2024/02/05 04:43:40;;;;;;;0.80;0.80;;;9.80;99.90;;;;;;5046677;28;20431;-90
2024/02/05 04:46:09;;;;;;;1.57;0.97;;;9.80;99.90;;;;;;5044360;28;20421;-90
2024/02/05 04:48:36;;;;;;;1.10;1.00;;;9.80;99.90;;;;;;5040306;28;20480;-89
2024/02/05 04:51:03;;;;;;;1.60;1.50;;;9.80;99.90;;;;;;5039792;28;20525;-90
2024/02/05 04:53:30;;;;;;;2.20;1.63;;;9.70;99.90;;;;;;5050799;28;20434;-89
2024/02/05 04:55:57;;;;;;;1.57;0.87;;;9.80;99.90;;;;;;5059690;28;20467;-89
2024/02/05 04:58:25;;;;;;;0.80;0.80;;;9.80;99.90;;;;;;5050281;28;20498;-88
2024/02/05 05:00:52;;;;;;;0.90;0.70;;;9.80;99.90;;;;;;5046722;28;20471;-89
2024/02/05 05:03:19;;;;;;;1.33;0.60;;;9.80;99.90;;;;;;5043194;28;20481;-89
2024/02/05 05:05:46;;;;;;;1.47;0.97;;;9.80;99.90;;;;;;5039878;28;20442;-89
2024/02/05 05:08:13;;;;;;;3.17;0.80;;;9.80;99.90;;;;;;5038765;28;20446;-88
2024/02/05 05:10:40;;;;;;;1.10;1.00;;;9.80;99.90;;;;;;5037880;28;20467;-88
2024/02/05 05:13:07;;;;;;;1.10;1.00;;;9.80;99.90;;;;;;5038598;28;20417;-88
2024/02/05 05:15:35;;;;;;;1.57;1.10;;;9.80;99.90;;;;;;5042105;28;20509;-89
2024/02/05 05:18:02;;;;;;;2.93;1.40;;;9.70;99.90;;;;;;5053566;28;20496;-88
2024/02/05 05:20:29;;;;;;;1.47;0.90;;;9.70;99.90;;;;;;5057905;28;20489;-88
2024/02/05 05:22:56;;;;;;;1.30;1.20;;;9.70;99.90;;;;;;5050329;28;20462;-87
2024/02/05 05:25:23;;;;;;;2.40;1.00;;;9.70;99.90;;;;;;5040378;28;20538;-87
2024/02/05 05:27:50;;;;;;;0.97;0.87;;;9.70;99.90;;;;;;5039962;28;20454;-88
2024/02/05 05:30:17;;;;;;;1.00;0.90;;;9.70;99.90;;;;;;5051597;28;20441;-88
2024/02/05 05:32:54;;;;;;;0.87;0.80;;;9.70;99.90;;;;;;5043445;28;20501;-88
2024/02/05 05:35:23;;;;;;;2.83;1.07;;;9.70;99.90;;;;;;5052518;28;20413;-89
2024/02/05 05:37:50;;;;;;;3.87;1.20;;;9.70;99.90;;;;;;5055203;28;20453;-88
2024/02/05 05:40:17;;;;;;;2.07;1.20;;;9.70;99.90;;;;;;5053109;28;20470;-87
2024/02/05 05:42:44;;;;;;;1.20;0.80;;;9.60;99.90;;;;;;5056063;28;20506;-88
2024/02/05 05:45:11;;;;;;;1.17;0.90;;;9.60;99.90;;;;;;5046806;28;20510;-88
2024/02/05 05:47:39;;;;;;;1.93;1.83;;;9.60;99.90;;;;;;5041751;28;20453;-88
2024/02/05 05:50:09;;;;;;;1.53;0.80;;;9.60;99.90;;;;;;5039065;28;20475;-89
2024/02/05 05:52:36;;;;;;;1.40;0.90;;;9.60;99.90;;;;;;5047666;28;20455;-89
2024/02/05 05:55:03;;;;;;;2.20;0.80;;;9.70;99.90;;;;;;5039603;28;20533;-88
2024/02/05 06:00:14;;;;;;;0.70;0.70;;;9.70;99.90;;;;;;5018310;28;20447;-91
2024/02/05 06:02:56;;;;;;;4.53;1.00;;;9.70;99.90;;;;;;5019631;28;20433;-92
2024/02/05 06:05:40;;;;;;;0.97;0.70;;;9.70;99.90;;;;;;5019293;28;20418;-91
2024/02/05 06:12:12;;;;;;;0.70;0.70;;;9.70;99.90;;;;;;5014628;28;20471;-92
2024/02/05 06:17:15;;;;;;;4.60;3.43;;;9.60;99.90;;;;;;4349068;26;20480;-89
2024/02/05 06:19:45;;;;;;;4.13;2.87;;;9.70;99.90;;;;;;5019580;28;20437;-90
2024/02/05 06:22:13;;;;;;;0.90;0.90;;;9.60;99.90;;;;;;5019266;28;20402;-90
2024/02/05 06:24:40;;;;;;;2.73;1.50;;;9.70;99.90;;;;;;5013341;28;21004;-90
2024/02/05 06:27:09;;;;;;;1.17;1.07;;;9.60;99.90;;;;;;5018983;28;20482;-90
2024/02/05 06:29:37;;;;;;;2.50;1.00;;;9.60;99.90;;;;;;5015082;28;20407;-89
2024/02/05 06:32:06;;;;;;;1.30;1.20;;;9.60;99.90;;;;;;5006288;28;20929;-90
2024/02/05 06:34:33;;;;;;;1.37;1.30;;;9.60;99.90;;;;;;5017878;28;20452;-90
2024/02/05 06:37:05;;;;;;;1.67;1.30;;;9.70;99.90;;;;;;5018973;28;20551;-90
2024/02/05 06:39:40;;;;;;;3.00;1.20;;;9.70;99.90;;;;;;5014952;28;20432;-90
2024/02/05 06:42:09;;;;;;;1.00;0.90;;;9.70;99.90;;;;;;5002388;28;20531;-91
2024/02/05 06:44:45;;;;;;;2.20;1.23;;;9.70;99.90;;;;;;5003051;28;20945;-91
2024/02/05 06:47:12;;;;;;;0.80;0.80;;;9.70;99.90;;;;;;5003668;28;20504;-91
2024/02/05 06:49:44;;;;;;;1.60;1.00;;;9.80;99.90;;;;;;5006425;28;20500;-89
2024/02/05 06:52:11;;;;;;;1.67;1.00;;;9.60;99.90;;;;;;5007825;28;20432;-89
2024/02/05 06:54:44;;;;;;;1.50;0.90;;;9.70;99.90;;;;;;5001409;28;20502;-90
2024/02/05 06:57:11;;;;;;;1.20;1.10;;;9.70;99.90;;;;;;5011194;28;20452;-90
2024/02/05 06:59:40;;;;;;;0.80;0.77;;;9.70;99.90;;;;;;5018830;28;20439;-88
2024/02/05 07:02:08;;;;;;;1.20;0.80;;;9.70;99.90;;;;;;5018373;28;20463;-89
2024/02/05 07:04:36;;;;;;;0.87;0.80;;;9.70;99.90;;;;;;5014695;28;20452;-90
2024/02/05 07:07:07;;;;;;;0.77;0.77;;;9.80;99.90;;;;;;5001712;28;20449;-91
2024/02/05 07:09:36;;;;;;;2.50;0.93;;;9.80;99.90;;;;;;5002477;28;20452;-91
2024/02/05 07:12:08;;;;;;;1.20;1.10;;;9.70;99.90;;;;;;5004804;28;20439;-90
2024/02/05 07:14:38;;;;;;;1.00;0.90;;;9.80;99.90;;;;;;5001547;28;20475;-91
2024/02/05 07:17:12;;;;;;;0.80;0.80;;;9.70;99.90;;;;;;5000219;28;20461;-91
2024/02/05 07:19:39;;;;;;;1.23;1.00;;;9.80;99.90;;;;;;5000660;28;20398;-90
2024/02/05 07:22:06;;;;;;;1.70;0.97;;;9.70;99.90;;;;;;5000896;28;20479;-90
2024/02/05 07:24:33;;;;;;;1.47;1.10;;;9.80;99.90;;;;;;5001243;28;20450;-91
2024/02/05 07:27:13;;;;;;;1.00;1.00;;;9.80;99.90;;;;;;5010682;28;20520;-90
2024/02/05 07:29:48;;;;;;;2.20;0.90;;;9.80;99.90;;;;;;5018152;28;20438;-89
2024/02/05 07:32:19;;;;;;;1.30;1.20;;;9.80;99.90;;;;;;5008483;28;20463;-90
2024/02/05 07:35:09;;;;;;;1.60;1.50;;;9.80;99.90;;;;;;5002736;28;20452;-90
2024/02/05 07:37:37;;;;;;;1.50;1.40;;;9.80;99.90;;;;;;5001230;28;20823;-90
2024/02/05 07:40:09;;;;;;;1.30;1.20;;;10.00;99.90;;;;;;5000674;28;20480;-90
2024/02/05 07:42:38;;;;;;;1.40;1.30;;;9.80;99.90;;;;;;4984470;28;20496;-90
2024/02/05 07:45:06;;;;;;;1.37;1.20;;;9.80;99.90;;;;;;5001683;28;20452;-91
2024/02/05 07:47:39;;;;;;;1.80;1.33;;;9.80;99.90;;;;;;5001838;28;20489;-91
2024/02/05 07:50:09;;;;;;;1.63;1.30;;;9.80;99.90;;;;;;5003292;28;20478;-91
2024/02/05 07:52:36;;;;;;;1.60;1.33;;;9.80;99.90;;;;;;5013832;28;20444;-91
2024/02/05 07:55:04;;;;;;;3.17;2.13;;;9.80;99.90;;;;;;5002155;28;20423;-91
2024/02/05 07:57:40;;;;;;;1.90;1.80;;;9.80;99.90;;;;;;5005977;28;20480;-91
2024/02/05 08:00:24;;;;;;;2.40;2.20;;;9.80;99.90;;;;;;5002688;28;20448;-91
2024/02/05 08:02:57;;;;;;;4.20;3.80;;;9.80;99.90;;;;;;5004843;28;20786;-92
2024/02/05 08:05:42;;;;;;;2.80;2.60;;;9.80;99.90;;;;;;5004297;28;20442;-93
2024/02/05 08:08:09;;;;;;;3.40;2.93;;;9.80;99.90;;;;;;5007821;28;20460;-90
2024/02/05 08:10:38;;;;;;;10.60;6.67;;;9.80;99.90;;;;;;5010127;28;20515;-92
2024/02/05 08:13:11;;;;;;;3.47;2.70;;;9.90;99.90;;;;;;5011198;28;20447;-91
2024/02/05 08:15:41;;;;;;;4.60;2.03;;;9.80;99.90;;;;;;5010609;28;20459;-92
2024/02/05 08:18:12;;;;;;;4.17;1.80;;;9.80;99.90;;;;;;5007379;28;20484;-92
2024/02/05 08:20:51;;;;;;;7.30;2.93;;;9.80;99.90;;;;;;5007760;28;20432;-91
2024/02/05 08:23:28;;;;;;;2.40;2.20;;;9.80;99.90;;;;;;5007770;28;20433;-93
2024/02/05 08:26:03;;;;;;;2.47;2.27;;;9.80;99.90;;;;;;5008406;28;20451;-92
2024/02/05 08:28:31;;;;;;;4.97;2.37;;;9.80;99.90;;;;;;5011026;28;20443;-91
2024/02/05 08:30:58;;;;;;;2.40;2.30;;;9.90;99.90;;;;;;5011271;28;20448;-92
2024/02/05 08:33:25;;;;;;;5.13;2.70;;;9.80;99.90;;;;;;5012790;28;20460;-91
2024/02/05 08:35:57;;;;;;;3.20;2.67;;;9.80;99.90;;;;;;5013536;28;20426;-91
2024/02/05 08:38:24;;;;;;;5.00;4.53;;;9.80;99.90;;;;;;5012402;28;20873;-92
2024/02/05 08:40:57;;;;;;;3.17;2.60;;;9.80;99.90;;;;;;5009690;28;20838;-91
2024/02/05 08:43:44;;;;;;;3.80;3.00;;;9.80;99.90;;;;;;5011169;28;20456;-91
2024/02/05 08:46:15;;;;;;;2.97;2.77;;;9.80;99.90;;;;;;5011382;28;20422;-92
2024/02/05 08:48:44;;;;;;;3.47;3.20;;;9.80;99.90;;;;;;5013317;28;20477;-91
2024/02/05 08:51:21;;;;;;;5.43;3.17;;;9.80;99.90;;;;;;5011845;28;20434;-91
2024/02/05 08:53:48;;;;;;;4.83;3.40;;;9.80;99.90;;;;;;5009830;28;20426;-91
2024/02/05 08:56:15;;;;;;;3.13;2.80;;;9.80;99.90;;;;;;5008926;28;20495;-91
2024/02/05 15:07:49;;;;;;;18.43;6.00;;;10.30;99.90;;;;;;1304599;23;20705;-93
2024/02/05 17:39:59;;;;;;;11.23;6.13;;;10.40;99.90;;;;;;4988225;28;20475;-91
2024/02/05 17:42:30;;;;;;;10.87;6.80;;;10.50;99.90;;;;;;4987154;28;20446;-90
2024/02/05 17:45:08;;;;;;;11.47;6.93;;;10.50;99.90;;;;;;4987443;28;20449;-90
2024/02/05 17:47:42;;;;;;;15.67;7.50;;;10.50;1.00;;;;;;4983450;28;20830;-91
2024/02/05 17:50:20;;;;;;;18.20;8.70;;;10.50;99.90;;;;;;4987251;28;20430;-91
2024/02/05 17:52:55;;;;;;;15.43;7.20;;;10.60;99.90;;;;;;4999854;28;20475;-92
2024/02/05 17:56:04;;;;;;;;;;;;;;;;;;;;;
2024/02/05 18:15:21;;;;;;;19.70;7.50;;;10.40;1.00;;;;;;4921093;29;20440;-91
2024/02/05 18:19:06;;;;;;;13.93;8.10;;;10.50;1.00;;;;;;4931103;29;20844;-91
2024/02/05 18:25:20;;;;;;;12.53;8.00;;;10.30;1.00;;;;;;4805868;28;20456;-91
2024/02/05 18:28:09;;;;;;;17.77;7.77;;;10.30;1.00;;;;;;4984960;28;20476;-90
2024/02/05 18:30:46;;;;;;;11.17;6.80;;;10.30;99.90;;;;;;4985044;28;20488;-92
2024/02/05 18:36:39;;;;;;;20.90;8.70;;;10.30;1.00;;;;;;4993762;28;20449;-91
2024/02/05 18:39:21;;;;;;;15.20;7.63;;;10.30;99.90;;;;;;4985466;28;20540;-92
2024/02/05 18:42:17;;;;;;;19.23;7.97;;;10.30;99.90;;;;;;4984881;28;20453;-92
2024/02/05 18:47:40;;;;;;;15.53;9.20;;;10.30;1.00;;;;;;4983747;28;20534;-91
2024/02/05 18:50:28;;;;;;;16.27;8.50;;;10.30;1.00;;;;;;4983090;28;20461;-91
2024/02/05 18:53:03;;;;;;;16.53;7.33;;;10.30;99.90;;;;;;4983130;28;20445;-91
2024/02/05 18:55:45;;;;;;;12.50;6.53;;;10.30;99.90;;;;;;4982099;28;20459;-90
2024/02/05 18:58:33;;;;;;;17.20;6.27;;;10.40;1.00;;;;;;4983330;28;20490;-90
2024/02/05 19:01:13;;;;;;;22.30;7.27;;;10.30;99.90;;;;;;4997531;28;20437;-91
2024/02/05 19:03:51;;;;;;;25.53;13.50;;;10.40;99.90;;;;;;4998596;28;20448;-92
2024/02/05 19:06:24;;;;;;;19.33;10.40;;;10.40;1.00;;;;;;4995941;28;20476;-91
2024/02/05 19:09:10;;;;;;;29.53;10.07;;;10.60;99.90;;;;;;4987568;28;20477;-93
2024/02/05 19:11:42;;;;;;;17.63;8.90;;;10.40;1.00;;;;;;4985299;28;20496;-92
2024/02/05 19:14:24;;;;;;;16.30;7.23;;;10.40;99.90;;;;;;4984593;28;20449;-92
2024/02/05 19:22:09;;;;;;;11.63;6.50;;;10.30;1.00;;;;;;5200291;23;20497;-89
2024/02/05 19:24:37;;;;;;;12.90;8.30;;;10.40;1.00;;;;;;4966146;28;20457;-90
2024/02/05 19:27:04;;;;;;;16.83;8.30;;;10.40;1.00;;;;;;4969474;28;20521;-90
2024/02/05 19:29:32;;;;;;;17.60;7.70;;;10.30;1.00;;;;;;4978958;28;20450;-90
2024/02/05 19:32:01;;;;;;;13.50;7.50;;;10.30;1.00;;;;;;4979123;28;20848;-90
2024/02/05 19:34:28;;;;;;;12.47;7.80;;;10.30;72.50;;;;;;4978929;28;20477;-90
2024/02/05 19:36:55;;;;;;;15.50;8.20;;;10.30;91.30;;;;;;4978843;28;20400;-89
2024/02/05 19:39:22;;;;;;;17.70;8.13;;;10.30;99.90;;;;;;4973267;28;20472;-89
2024/02/05 19:41:49;;;;;;;16.43;7.97;;;10.30;22.60;;;;;;4968896;28;20409;-89
2024/02/05 19:44:17;;;;;;;20.90;9.10;;;10.30;99.90;;;;;;4979771;28;20423;-89
2024/02/05 19:46:52;;;;;;;15.80;8.67;;;10.30;99.90;;;;;;4979845;28;20620;-90
2024/02/05 19:49:19;;;;;;;24.50;9.10;;;10.30;12.10;;;;;;4979793;28;20467;-88
2024/02/05 19:51:46;;;;;;;14.60;8.97;;;10.30;99.90;;;;;;4979596;28;20417;-90
2024/02/05 19:54:12;;;;;;;11.80;7.93;;;10.30;99.90;;;;;;4979864;28;20446;-89
2024/02/05 19:56:44;;;;;;;22.50;8.57;;;10.30;99.90;;;;;;4979508;28;20421;-88
2024/02/05 19:59:12;;;;;;;18.60;8.37;;;10.20;99.90;;;;;;4968926;28;20486;-89
2024/02/05 20:02:16;;;;;;;20.10;8.90;;;10.20;99.90;;;;;;5054912;23;20576;-89
2024/02/05 20:04:45;;;;;;;14.93;8.30;;;10.20;99.90;;;;;;4964977;28;20462;-87
2024/02/05 20:07:12;;;;;;;18.80;8.20;;;10.20;99.90;;;;;;4994301;28;20437;-87
2024/02/05 20:09:39;;;;;;;12.23;8.10;;;10.20;99.90;;;;;;4991885;28;20451;-88
2024/02/05 20:12:22;;;;;;;14.53;8.00;;;10.20;99.90;;;;;;4986180;28;20448;-90
2024/02/05 20:14:52;;;;;;;11.23;7.57;;;10.30;99.90;;;;;;4983136;28;20488;-88
2024/02/05 20:17:40;;;;;;;11.50;7.40;;;10.30;1.00;;;;;;4984169;28;20412;-89
2024/02/05 20:20:14;;;;;;;19.30;9.40;;;10.20;1.00;;;;;;4984180;28;20453;-90
2024/02/05 20:22:46;;;;;;;12.90;8.17;;;10.30;1.00;;;;;;4983191;28;20443;-89
2024/02/05 20:25:25;;;;;;;17.43;8.77;;;10.30;1.00;;;;;;4982987;28;20451;-89
2024/02/05 20:33:55;;;;;;;21.13;9.50;;;10.30;99.90;;;;;;4369584;26;20448;-88
2024/02/05 20:36:24;;;;;;;22.33;9.97;;;10.20;1.00;;;;;;4976687;28;20424;-88
2024/02/05 20:39:03;;;;;;;20.07;9.13;;;10.20;1.00;;;;;;4967451;28;21035;-88
2024/02/05 20:41:31;;;;;;;13.17;8.33;;;10.30;1.00;;;;;;4963723;28;20869;-88
2024/02/05 20:46:30;;;;;;;19.83;9.90;;;10.20;1.00;;;;;;4961003;29;20505;-87
2024/02/05 20:48:57;;;;;;;15.40;8.27;;;10.20;99.90;;;;;;4962869;28;20444;-88
2024/02/05 20:51:25;;;;;;;22.30;9.27;;;10.20;99.90;;;;;;4962082;28;20456;-88
2024/02/05 20:53:52;;;;;;;16.43;8.80;;;10.10;49.40;;;;;;4961355;28;20421;-88
2024/02/05 20:56:22;;;;;;;18.63;9.50;;;10.20;1.00;;;;;;4960413;28;20565;-88
2024/02/05 20:58:49;;;;;;;14.43;10.90;;;10.10;24.50;;;;;;4961425;29;20474;-88
2024/02/05 21:01:16;;;;;;;17.33;8.70;;;10.10;56.30;;;;;;4962136;28;20509;-88
2024/02/05 21:03:43;;;;;;;14.73;8.83;;;10.10;99.90;;;;;;4961288;29;20492;-89
2024/02/05 21:06:10;;;;;;;19.30;7.90;;;10.20;99.90;;;;;;4968788;28;20447;-89
2024/02/05 21:08:38;;;;;;;16.93;9.67;;;10.10;1.00;;;;;;4966773;28;20972;-88
2024/02/05 21:11:05;;;;;;;18.53;10.77;;;10.20;1.00;;;;;;4960936;29;20528;-88
2024/02/05 21:13:33;;;;;;;14.63;9.13;;;10.10;1.00;;;;;;4959685;28;20448;-88
2024/02/05 21:16:00;;;;;;;14.13;7.87;;;10.10;1.00;;;;;;4976825;28;20469;-87
2024/02/05 21:18:27;;;;;;;15.50;10.20;;;10.10;1.00;;;;;;4981049;28;20470;-88
2024/02/05 21:20:53;;;;;;;25.03;9.80;;;10.00;99.90;;;;;;4969224;28;20453;-88
2024/02/05 21:23:20;;;;;;;12.03;9.53;;;10.00;99.90;;;;;;4961164;29;20533;-90
2024/02/05 21:25:51;;;;;;;15.70;8.60;;;10.00;1.00;;;;;;4963086;28;20498;-89
2024/02/05 21:28:17;;;;;;;13.23;8.50;;;9.90;1.00;;;;;;4963288;29;20409;-88
2024/02/05 21:30:44;;;;;;;14.47;9.10;;;9.90;1.00;;;;;;4961880;29;20454;-88
2024/02/05 21:33:13;;;;;;;20.67;10.70;;;9.90;1.00;;;;;;4960406;29;20509;-89
2024/02/05 21:35:40;;;;;;;15.03;8.87;;;9.90;1.00;;;;;;4963043;28;20511;-88
2024/02/05 21:38:07;;;;;;;13.00;8.23;;;9.90;99.90;;;;;;4962953;29;20477;-88
2024/02/05 21:40:35;;;;;;;14.63;8.77;;;9.90;1.00;;;;;;4961230;29;20803;-88
2024/02/05 21:43:03;;;;;;;14.63;9.00;;;10.00;99.90;;;;;;4962413;29;20461;-88
2024/02/05 21:45:31;;;;;;;18.33;8.53;;;10.00;99.90;;;;;;4961460;28;20509;-88
2024/02/05 21:47:58;;;;;;;19.17;9.70;;;10.00;99.90;;;;;;4964738;29;20445;-88
2024/02/05 21:50:26;;;;;;;15.97;8.50;;;10.00;1.00;;;;;;4963987;29;20513;-87
2024/02/05 21:52:53;;;;;;;25.27;9.00;;;9.90;1.00;;;;;;4973159;29;20505;-88
2024/02/05 21:55:20;;;;;;;16.07;8.70;;;10.00;1.80;;;;;;4971675;28;20481;-89
2024/02/05 21:57:47;;;;;;;15.50;8.80;;;10.00;1.00;;;;;;4975914;29;20477;-87
2024/02/05 22:00:20;;;;;;;14.87;9.30;;;10.00;1.00;;;;;;4964858;29;20529;-89
2024/02/05 22:02:47;;;;;;;13.60;7.47;;;10.00;1.00;;;;;;4964199;29;20441;-89
2024/02/05 22:05:14;;;;;;;12.53;7.87;;;10.00;99.90;;;;;;4966568;28;20445;-87
2024/02/05 22:07:41;;;;;;;19.03;7.97;;;9.90;1.00;;;;;;4968313;29;20454;-88
2024/02/05 22:10:08;;;;;;;13.67;9.07;;;10.00;1.00;;;;;;4964547;29;20505;-89
2024/02/05 22:12:35;;;;;;;12.57;8.20;;;10.00;99.90;;;;;;4961777;29;20453;-88
2024/02/05 22:15:02;;;;;;;13.70;8.10;;;10.00;99.90;;;;;;4961542;28;21028;-87
2024/02/05 22:17:30;;;;;;;20.97;7.90;;;10.00;1.00;;;;;;4962049;29;20537;-88
2024/02/05 22:19:57;;;;;;;14.07;7.33;;;10.00;1.00;;;;;;4960692;29;20562;-88
2024/02/05 22:22:24;;;;;;;16.60;8.57;;;10.10;1.00;;;;;;4960509;29;20504;-88
2024/02/05 22:24:51;;;;;;;17.47;7.80;;;10.10;25.70;;;;;;4960881;28;20872;-88
2024/02/05 22:27:18;;;;;;;19.10;8.80;;;10.00;45.90;;;;;;4960830;29;20474;-88
2024/02/05 22:29:45;;;;;;;15.23;8.33;;;10.00;1.00;;;;;;4960879;29;20472;-88
2024/02/05 22:32:13;;;;;;;20.87;9.50;;;9.90;1.00;;;;;;4959823;29;20526;-90
2024/02/05 22:34:41;;;;;;;12.20;8.77;;;9.90;68.90;;;;;;4960250;28;20889;-90